sensor_id;sensor_type;location;lat;lon;timestamp;temperature;humidity
6098;DHT22;3077;50.922;6.584;2022-08-19T00:00:32;20.50;99.90
6098;DHT22;3077;50.922;6.584;2022-08-19T00:02:58;20.40;99.90
6098;DHT22;3077;50.922;6.584;2022-08-19T00:05:23;20.40;99.90
6098;DHT22;3077;50.922;6.584;2022-08-19T00:07:50;20.40;99.90
6098;DHT22;3077;50.922;6.584;2022-08-19T00:10:18;20.40;99.90
6098;DHT22;3077;50.922;6.584;2022-08-19T00:12:44;20.30;99.90
6098;DHT22;3077;50.922;6.584;2022-08-19T00:15:12;20.20;99.90
6098;DHT22;3077;50.922;6.584;2022-08-19T00:17:40;20.20;99.90
6098;DHT22;3077;50.922;6.584;2022-08-19T00:20:08;20.20;99.90
6098;DHT22;3077;50.922;6.584;2022-08-19T00:22:36;20.20;99.90
6098;DHT22;3077;50.922;6.584;2022-08-19T00:25:03;20.20;99.90
6098;DHT22;3077;50.922;6.584;2022-08-19T00:27:29;20.20;99.90
6098;DHT22;3077;50.922;6.584;2022-08-19T00:29:55;20.20;99.90
6098;DHT22;3077;50.922;6.584;2022-08-19T00:32:21;20.20;99.90
6098;DHT22;3077;50.922;6.584;2022-08-19T00:34:46;20.20;99.90
6098;DHT22;3077;50.922;6.584;2022-08-19T00:37:12;20.10;99.90
6098;DHT22;3077;50.922;6.584;2022-08-19T00:39:38;20.10;99.90
6098;DHT22;3077;50.922;6.584;2022-08-19T00:42:04;20.10;99.90
6098;DHT22;3077;50.922;6.584;2022-08-19T00:44:31;20.10;99.90
6098;DHT22;3077;50.922;6.584;2022-08-19T00:46:58;20.00;99.90
6098;DHT22;3077;50.922;6.584;2022-08-19T00:49:43;19.90;99.90
6098;DHT22;3077;50.922;6.584;2022-08-19T00:52:18;19.90;99.90
6098;DHT22;3077;50.922;6.584;2022-08-19T00:54:46;19.90;99.90
6098;DHT22;3077;50.922;6.584;2022-08-19T00:57:15;19.90;99.90
6098;DHT22;3077;50.922;6.584;2022-08-19T00:59:44;19.90;99.90
6098;DHT22;3077;50.922;6.584;2022-08-19T01:02:11;20.00;99.90
6098;DHT22;3077;50.922;6.584;2022-08-19T01:04:38;20.00;99.90
6098;DHT22;3077;50.922;6.584;2022-08-19T01:07:04;20.10;99.90
6098;DHT22;3077;50.922;6.584;2022-08-19T01:09:30;20.20;99.90
6098;DHT22;3077;50.922;6.584;2022-08-19T01:11:57;20.10;99.90
6098;DHT22;3077;50.922;6.584;2022-08-19T01:14:23;20.10;99.90
6098;DHT22;3077;50.922;6.584;2022-08-19T01:16:50;20.00;99.90
6098;DHT22;3077;50.922;6.584;2022-08-19T01:19:28;19.90;99.90
6098;DHT22;3077;50.922;6.584;2022-08-19T01:22:26;19.90;99.90
6098;DHT22;3077;50.922;6.584;2022-08-19T01:24:52;20.00;99.90
6098;DHT22;3077;50.922;6.584;2022-08-19T01:27:18;20.00;99.90
6098;DHT22;3077;50.922;6.584;2022-08-19T01:29:44;20.00;99.90
6098;DHT22;3077;50.922;6.584;2022-08-19T01:32:15;19.90;99.90
6098;DHT22;3077;50.922;6.584;2022-08-19T01:34:42;19.90;99.90
6098;DHT22;3077;50.922;6.584;2022-08-19T01:37:13;19.90;99.90
6098;DHT22;3077;50.922;6.584;2022-08-19T01:39:40;19.80;99.90
6098;DHT22;3077;50.922;6.584;2022-08-19T01:42:07;19.90;99.90
6098;DHT22;3077;50.922;6.584;2022-08-19T01:44:35;19.90;99.90
6098;DHT22;3077;50.922;6.584;2022-08-19T01:47:02;19.90;99.90
6098;DHT22;3077;50.922;6.584;2022-08-19T01:49:29;19.90;99.90
6098;DHT22;3077;50.922;6.584;2022-08-19T01:51:54;19.90;99.90
6098;DHT22;3077;50.922;6.584;2022-08-19T01:54:22;19.80;99.90
6098;DHT22;3077;50.922;6.584;2022-08-19T01:56:49;19.70;99.90
6098;DHT22;3077;50.922;6.584;2022-08-19T01:59:19;19.70;99.90
6098;DHT22;3077;50.922;6.584;2022-08-19T02:01:45;19.70;99.90
6098;DHT22;3077;50.922;6.584;2022-08-19T02:04:11;19.50;99.90
6098;DHT22;3077;50.922;6.584;2022-08-19T02:06:38;19.50;99.90
6098;DHT22;3077;50.922;6.584;2022-08-19T02:09:05;19.40;99.90
6098;DHT22;3077;50.922;6.584;2022-08-19T02:11:33;19.40;99.90
6098;DHT22;3077;50.922;6.584;2022-08-19T02:14:01;19.50;99.90
6098;DHT22;3077;50.922;6.584;2022-08-19T02:16:27;19.50;99.90
6098;DHT22;3077;50.922;6.584;2022-08-19T02:18:53;19.50;99.90
6098;DHT22;3077;50.922;6.584;2022-08-19T02:21:21;19.40;99.90
6098;DHT22;3077;50.922;6.584;2022-08-19T02:23:48;19.40;99.90
6098;DHT22;3077;50.922;6.584;2022-08-19T02:26:15;19.30;99.90
6098;DHT22;3077;50.922;6.584;2022-08-19T02:28:41;19.30;99.90
6098;DHT22;3077;50.922;6.584;2022-08-19T02:31:16;19.30;99.90
6098;DHT22;3077;50.922;6.584;2022-08-19T02:33:43;19.30;99.90
6098;DHT22;3077;50.922;6.584;2022-08-19T02:36:10;19.30;99.90
6098;DHT22;3077;50.922;6.584;2022-08-19T02:38:37;19.30;99.90
6098;DHT22;3077;50.922;6.584;2022-08-19T02:41:07;19.30;99.90
6098;DHT22;3077;50.922;6.584;2022-08-19T02:43:35;19.30;99.90
6098;DHT22;3077;50.922;6.584;2022-08-19T02:48:39;19.30;99.90
6098;DHT22;3077;50.922;6.584;2022-08-19T02:51:04;19.30;99.90
6098;DHT22;3077;50.922;6.584;2022-08-19T02:53:31;19.30;99.90
6098;DHT22;3077;50.922;6.584;2022-08-19T02:55:56;19.30;99.90
6098;DHT22;3077;50.922;6.584;2022-08-19T02:58:23;19.20;99.90
6098;DHT22;3077;50.922;6.584;2022-08-19T03:00:52;19.10;99.90
6098;DHT22;3077;50.922;6.584;2022-08-19T03:03:19;19.10;99.90
6098;DHT22;3077;50.922;6.584;2022-08-19T03:05:45;19.00;99.90
6098;DHT22;3077;50.922;6.584;2022-08-19T03:08:12;18.90;99.90
6098;DHT22;3077;50.922;6.584;2022-08-19T03:10:55;18.90;99.90
6098;DHT22;3077;50.922;6.584;2022-08-19T03:13:22;18.90;99.90
6098;DHT22;3077;50.922;6.584;2022-08-19T03:15:48;18.80;99.90
6098;DHT22;3077;50.922;6.584;2022-08-19T03:18:15;18.80;99.90
6098;DHT22;3077;50.922;6.584;2022-08-19T03:20:47;18.80;99.90
6098;DHT22;3077;50.922;6.584;2022-08-19T03:23:13;18.70;99.90
6098;DHT22;3077;50.922;6.584;2022-08-19T03:25:40;18.70;99.90
6098;DHT22;3077;50.922;6.584;2022-08-19T03:28:11;18.60;99.90
6098;DHT22;3077;50.922;6.584;2022-08-19T03:30:39;18.50;99.90
6098;DHT22;3077;50.922;6.584;2022-08-19T03:33:09;18.50;99.90
6098;DHT22;3077;50.922;6.584;2022-08-19T03:35:35;18.40;99.90
6098;DHT22;3077;50.922;6.584;2022-08-19T03:38:05;18.30;99.90
6098;DHT22;3077;50.922;6.584;2022-08-19T03:40:32;18.40;99.90
6098;DHT22;3077;50.922;6.584;2022-08-19T03:43:00;18.40;99.90
6098;DHT22;3077;50.922;6.584;2022-08-19T03:45:26;18.40;99.90
6098;DHT22;3077;50.922;6.584;2022-08-19T03:47:53;18.40;99.90
6098;DHT22;3077;50.922;6.584;2022-08-19T03:50:18;18.50;99.90
6098;DHT22;3077;50.922;6.584;2022-08-19T03:52:51;18.50;99.90
6098;DHT22;3077;50.922;6.584;2022-08-19T03:55:17;18.60;99.90
6098;DHT22;3077;50.922;6.584;2022-08-19T03:57:43;18.60;99.90
6098;DHT22;3077;50.922;6.584;2022-08-19T04:00:10;18.70;99.90
6098;DHT22;3077;50.922;6.584;2022-08-19T04:02:36;18.70;99.90
6098;DHT22;3077;50.922;6.584;2022-08-19T04:05:02;18.80;99.90
6098;DHT22;3077;50.922;6.584;2022-08-19T04:07:28;18.80;99.90
6098;DHT22;3077;50.922;6.584;2022-08-19T04:09:54;18.80;99.90
6098;DHT22;3077;50.922;6.584;2022-08-19T04:12:19;18.80;99.90
6098;DHT22;3077;50.922;6.584;2022-08-19T04:14:45;18.90;99.90
6098;DHT22;3077;50.922;6.584;2022-08-19T04:17:11;18.80;99.90
6098;DHT22;3077;50.922;6.584;2022-08-19T04:19:38;18.80;99.90
6098;DHT22;3077;50.922;6.584;2022-08-19T04:22:04;18.90;99.90
6098;DHT22;3077;50.922;6.584;2022-08-19T04:24:30;18.90;99.90
6098;DHT22;3077;50.922;6.584;2022-08-19T04:26:56;18.90;99.90
6098;DHT22;3077;50.922;6.584;2022-08-19T04:29:24;18.70;99.90
6098;DHT22;3077;50.922;6.584;2022-08-19T04:31:51;18.60;99.90
6098;DHT22;3077;50.922;6.584;2022-08-19T04:34:19;18.50;99.90
6098;DHT22;3077;50.922;6.584;2022-08-19T04:36:49;18.40;99.90
6098;DHT22;3077;50.922;6.584;2022-08-19T04:39:19;18.40;99.90
6098;DHT22;3077;50.922;6.584;2022-08-19T04:41:45;18.30;99.90
6098;DHT22;3077;50.922;6.584;2022-08-19T04:44:34;18.20;99.90
6098;DHT22;3077;50.922;6.584;2022-08-19T04:47:00;18.10;99.90
6098;DHT22;3077;50.922;6.584;2022-08-19T04:49:27;18.10;99.90
6098;DHT22;3077;50.922;6.584;2022-08-19T04:51:54;18.10;99.90
6098;DHT22;3077;50.922;6.584;2022-08-19T04:54:21;18.10;99.90
6098;DHT22;3077;50.922;6.584;2022-08-19T04:56:48;18.10;99.90
6098;DHT22;3077;50.922;6.584;2022-08-19T04:59:15;18.20;99.90
6098;DHT22;3077;50.922;6.584;2022-08-19T05:01:42;18.30;99.90
6098;DHT22;3077;50.922;6.584;2022-08-19T05:04:09;18.30;99.90
6098;DHT22;3077;50.922;6.584;2022-08-19T05:06:35;18.30;99.90
6098;DHT22;3077;50.922;6.584;2022-08-19T05:09:04;18.30;99.90
6098;DHT22;3077;50.922;6.584;2022-08-19T05:11:35;18.30;99.90
6098;DHT22;3077;50.922;6.584;2022-08-19T05:14:05;18.40;99.90
6098;DHT22;3077;50.922;6.584;2022-08-19T05:16:31;18.40;99.90
6098;DHT22;3077;50.922;6.584;2022-08-19T05:18:57;18.40;99.90
6098;DHT22;3077;50.922;6.584;2022-08-19T05:21:42;18.30;99.90
6098;DHT22;3077;50.922;6.584;2022-08-19T05:24:28;18.20;99.90
6098;DHT22;3077;50.922;6.584;2022-08-19T05:26:55;18.20;99.90
6098;DHT22;3077;50.922;6.584;2022-08-19T05:29:26;18.20;99.90
6098;DHT22;3077;50.922;6.584;2022-08-19T05:31:53;18.20;99.90
6098;DHT22;3077;50.922;6.584;2022-08-19T05:34:21;18.20;99.90
6098;DHT22;3077;50.922;6.584;2022-08-19T05:36:49;18.20;99.90
6098;DHT22;3077;50.922;6.584;2022-08-19T05:39:18;18.20;99.90
6098;DHT22;3077;50.922;6.584;2022-08-19T05:41:45;18.20;99.90
6098;DHT22;3077;50.922;6.584;2022-08-19T05:44:12;18.20;99.90
6098;DHT22;3077;50.922;6.584;2022-08-19T05:46:38;18.20;99.90
6098;DHT22;3077;50.922;6.584;2022-08-19T05:49:06;18.30;99.90
6098;DHT22;3077;50.922;6.584;2022-08-19T05:51:33;18.40;99.90
6098;DHT22;3077;50.922;6.584;2022-08-19T05:54:00;18.40;99.90
6098;DHT22;3077;50.922;6.584;2022-08-19T05:56:26;18.50;99.90
6098;DHT22;3077;50.922;6.584;2022-08-19T05:58:53;18.50;99.90
6098;DHT22;3077;50.922;6.584;2022-08-19T06:01:20;18.60;99.90
6098;DHT22;3077;50.922;6.584;2022-08-19T06:03:46;18.60;99.90
6098;DHT22;3077;50.922;6.584;2022-08-19T06:06:14;18.60;99.90
6098;DHT22;3077;50.922;6.584;2022-08-19T06:08:40;18.70;99.90
6098;DHT22;3077;50.922;6.584;2022-08-19T06:11:23;18.70;99.90
6098;DHT22;3077;50.922;6.584;2022-08-19T06:13:52;18.70;99.90
6098;DHT22;3077;50.922;6.584;2022-08-19T06:16:20;18.70;99.90
6098;DHT22;3077;50.922;6.584;2022-08-19T06:18:50;18.70;99.90
6098;DHT22;3077;50.922;6.584;2022-08-19T06:21:18;18.60;99.90
6098;DHT22;3077;50.922;6.584;2022-08-19T06:23:44;18.60;99.90
6098;DHT22;3077;50.922;6.584;2022-08-19T06:26:15;18.60;99.90
6098;DHT22;3077;50.922;6.584;2022-08-19T06:28:41;18.60;99.90
6098;DHT22;3077;50.922;6.584;2022-08-19T06:31:17;18.70;99.90
6098;DHT22;3077;50.922;6.584;2022-08-19T06:33:44;18.70;99.90
6098;DHT22;3077;50.922;6.584;2022-08-19T06:36:22;18.80;99.90
6098;DHT22;3077;50.922;6.584;2022-08-19T06:38:53;18.80;99.90
6098;DHT22;3077;50.922;6.584;2022-08-19T06:41:19;18.80;99.90
6098;DHT22;3077;50.922;6.584;2022-08-19T06:43:45;18.90;99.90
6098;DHT22;3077;50.922;6.584;2022-08-19T06:46:14;18.90;99.90
6098;DHT22;3077;50.922;6.584;2022-08-19T06:48:41;18.90;99.90
6098;DHT22;3077;50.922;6.584;2022-08-19T06:51:06;19.00;99.90
6098;DHT22;3077;50.922;6.584;2022-08-19T06:53:32;19.10;99.90
6098;DHT22;3077;50.922;6.584;2022-08-19T06:55:58;19.30;99.90
6098;DHT22;3077;50.922;6.584;2022-08-19T06:58:31;19.40;99.90
6098;DHT22;3077;50.922;6.584;2022-08-19T07:01:03;19.50;99.90
6098;DHT22;3077;50.922;6.584;2022-08-19T07:03:31;19.60;99.90
6098;DHT22;3077;50.922;6.584;2022-08-19T07:06:02;19.70;99.90
6098;DHT22;3077;50.922;6.584;2022-08-19T07:08:28;19.80;99.90
6098;DHT22;3077;50.922;6.584;2022-08-19T07:10:54;19.80;99.90
6098;DHT22;3077;50.922;6.584;2022-08-19T07:13:20;19.80;99.90
6098;DHT22;3077;50.922;6.584;2022-08-19T07:15:47;19.80;99.90
6098;DHT22;3077;50.922;6.584;2022-08-19T07:18:12;19.80;99.90
6098;DHT22;3077;50.922;6.584;2022-08-19T07:20:39;19.70;99.90
6098;DHT22;3077;50.922;6.584;2022-08-19T07:23:05;19.70;99.90
6098;DHT22;3077;50.922;6.584;2022-08-19T07:25:30;19.70;99.90
6098;DHT22;3077;50.922;6.584;2022-08-19T07:27:56;19.70;99.90
6098;DHT22;3077;50.922;6.584;2022-08-19T07:30:21;19.70;99.90
6098;DHT22;3077;50.922;6.584;2022-08-19T07:32:48;19.70;99.90
6098;DHT22;3077;50.922;6.584;2022-08-19T07:35:15;19.80;99.90
6098;DHT22;3077;50.922;6.584;2022-08-19T07:37:44;19.90;99.90
6098;DHT22;3077;50.922;6.584;2022-08-19T07:40:10;20.10;99.90
6098;DHT22;3077;50.922;6.584;2022-08-19T07:42:36;20.10;99.90
6098;DHT22;3077;50.922;6.584;2022-08-19T07:45:03;20.20;99.90
6098;DHT22;3077;50.922;6.584;2022-08-19T07:47:28;20.30;99.90
6098;DHT22;3077;50.922;6.584;2022-08-19T07:49:56;20.40;99.90
6098;DHT22;3077;50.922;6.584;2022-08-19T07:52:22;20.50;99.90
6098;DHT22;3077;50.922;6.584;2022-08-19T07:54:48;20.60;99.90
6098;DHT22;3077;50.922;6.584;2022-08-19T07:57:15;20.60;99.90
6098;DHT22;3077;50.922;6.584;2022-08-19T07:59:41;20.70;99.90
6098;DHT22;3077;50.922;6.584;2022-08-19T08:02:08;20.70;99.90
6098;DHT22;3077;50.922;6.584;2022-08-19T08:04:34;20.70;99.90
6098;DHT22;3077;50.922;6.584;2022-08-19T08:07:19;20.60;99.90
6098;DHT22;3077;50.922;6.584;2022-08-19T08:10:05;20.70;99.90
6098;DHT22;3077;50.922;6.584;2022-08-19T08:12:37;20.70;99.90
6098;DHT22;3077;50.922;6.584;2022-08-19T08:15:10;20.80;99.90
6098;DHT22;3077;50.922;6.584;2022-08-19T08:17:36;20.80;99.90
6098;DHT22;3077;50.922;6.584;2022-08-19T08:20:04;20.90;99.90
6098;DHT22;3077;50.922;6.584;2022-08-19T08:22:32;21.00;99.90
6098;DHT22;3077;50.922;6.584;2022-08-19T08:25:19;21.10;99.90
6098;DHT22;3077;50.922;6.584;2022-08-19T08:27:46;21.30;99.90
6098;DHT22;3077;50.922;6.584;2022-08-19T08:30:15;21.50;99.90
6098;DHT22;3077;50.922;6.584;2022-08-19T08:32:42;21.60;99.90
6098;DHT22;3077;50.922;6.584;2022-08-19T08:35:14;21.70;99.90
6098;DHT22;3077;50.922;6.584;2022-08-19T08:37:40;21.80;99.90
6098;DHT22;3077;50.922;6.584;2022-08-19T08:40:16;21.90;99.90
6098;DHT22;3077;50.922;6.584;2022-08-19T08:43:06;22.00;99.90
6098;DHT22;3077;50.922;6.584;2022-08-19T08:45:35;22.20;99.90
6098;DHT22;3077;50.922;6.584;2022-08-19T08:48:07;22.40;99.90
6098;DHT22;3077;50.922;6.584;2022-08-19T08:50:40;22.50;99.90
6098;DHT22;3077;50.922;6.584;2022-08-19T08:53:08;22.70;99.90
6098;DHT22;3077;50.922;6.584;2022-08-19T08:55:34;22.80;99.90
6098;DHT22;3077;50.922;6.584;2022-08-19T08:58:04;22.90;99.90
6098;DHT22;3077;50.922;6.584;2022-08-19T09:00:38;23.20;99.90
6098;DHT22;3077;50.922;6.584;2022-08-19T09:03:13;23.30;99.90
6098;DHT22;3077;50.922;6.584;2022-08-19T09:12:10;23.80;99.90
6098;DHT22;3077;50.922;6.584;2022-08-19T09:17:16;23.90;99.90
6098;DHT22;3077;50.922;6.584;2022-08-19T09:22:19;24.00;99.90
6098;DHT22;3077;50.922;6.584;2022-08-19T09:24:51;24.00;99.90
6098;DHT22;3077;50.922;6.584;2022-08-19T09:27:20;23.80;99.90
6098;DHT22;3077;50.922;6.584;2022-08-19T09:29:49;23.70;99.90
6098;DHT22;3077;50.922;6.584;2022-08-19T09:32:15;23.80;99.90
6098;DHT22;3077;50.922;6.584;2022-08-19T09:34:41;23.90;99.90
6098;DHT22;3077;50.922;6.584;2022-08-19T09:37:07;23.90;99.90
6098;DHT22;3077;50.922;6.584;2022-08-19T09:39:32;24.00;99.90
6098;DHT22;3077;50.922;6.584;2022-08-19T09:41:58;24.00;99.90
6098;DHT22;3077;50.922;6.584;2022-08-19T09:44:24;24.00;99.90
6098;DHT22;3077;50.922;6.584;2022-08-19T09:46:50;24.00;99.90
6098;DHT22;3077;50.922;6.584;2022-08-19T09:49:18;24.00;99.90
6098;DHT22;3077;50.922;6.584;2022-08-19T09:51:50;24.00;99.90
6098;DHT22;3077;50.922;6.584;2022-08-19T09:54:16;24.00;99.90
6098;DHT22;3077;50.922;6.584;2022-08-19T09:56:42;24.30;99.90
6098;DHT22;3077;50.922;6.584;2022-08-19T09:59:08;24.50;99.90
6098;DHT22;3077;50.922;6.584;2022-08-19T10:01:35;24.60;99.90
6098;DHT22;3077;50.922;6.584;2022-08-19T10:04:01;25.00;99.90
6098;DHT22;3077;50.922;6.584;2022-08-19T10:06:30;25.30;99.90
6098;DHT22;3077;50.922;6.584;2022-08-19T10:09:00;25.40;99.90
6098;DHT22;3077;50.922;6.584;2022-08-19T10:11:28;25.60;99.90
6098;DHT22;3077;50.922;6.584;2022-08-19T10:13:54;25.60;99.90
6098;DHT22;3077;50.922;6.584;2022-08-19T10:16:22;25.70;99.90
6098;DHT22;3077;50.922;6.584;2022-08-19T10:18:52;25.30;99.90
6098;DHT22;3077;50.922;6.584;2022-08-19T10:21:23;25.20;99.90
6098;DHT22;3077;50.922;6.584;2022-08-19T10:23:52;25.00;99.90
6098;DHT22;3077;50.922;6.584;2022-08-19T10:26:30;24.90;99.90
6098;DHT22;3077;50.922;6.584;2022-08-19T10:28:57;25.00;99.90
6098;DHT22;3077;50.922;6.584;2022-08-19T10:31:28;25.10;99.90
6098;DHT22;3077;50.922;6.584;2022-08-19T10:33:56;25.10;99.90
6098;DHT22;3077;50.922;6.584;2022-08-19T10:36:30;25.20;99.90
6098;DHT22;3077;50.922;6.584;2022-08-19T10:39:02;25.40;99.90
6098;DHT22;3077;50.922;6.584;2022-08-19T10:41:31;25.60;99.90
6098;DHT22;3077;50.922;6.584;2022-08-19T10:44:01;25.60;99.90
6098;DHT22;3077;50.922;6.584;2022-08-19T10:46:29;25.60;99.90
6098;DHT22;3077;50.922;6.584;2022-08-19T10:49:07;25.60;99.90
6098;DHT22;3077;50.922;6.584;2022-08-19T10:51:34;25.60;99.90
6098;DHT22;3077;50.922;6.584;2022-08-19T10:54:19;25.50;99.90
6098;DHT22;3077;50.922;6.584;2022-08-19T10:56:48;25.50;99.90
6098;DHT22;3077;50.922;6.584;2022-08-19T10:59:19;25.40;99.90
6098;DHT22;3077;50.922;6.584;2022-08-19T11:01:50;25.30;99.90
6098;DHT22;3077;50.922;6.584;2022-08-19T11:04:18;25.40;99.90
6098;DHT22;3077;50.922;6.584;2022-08-19T11:06:48;25.40;99.90
6098;DHT22;3077;50.922;6.584;2022-08-19T11:09:17;25.60;99.90
6098;DHT22;3077;50.922;6.584;2022-08-19T11:11:44;25.70;99.90
6098;DHT22;3077;50.922;6.584;2022-08-19T11:14:14;25.80;99.90
6098;DHT22;3077;50.922;6.584;2022-08-19T11:16:41;26.00;99.90
6098;DHT22;3077;50.922;6.584;2022-08-19T11:19:10;26.30;99.90
6098;DHT22;3077;50.922;6.584;2022-08-19T11:21:41;26.70;99.90
6098;DHT22;3077;50.922;6.584;2022-08-19T11:24:24;27.00;99.90
6098;DHT22;3077;50.922;6.584;2022-08-19T11:26:52;27.00;99.90
6098;DHT22;3077;50.922;6.584;2022-08-19T11:29:20;27.00;99.90
6098;DHT22;3077;50.922;6.584;2022-08-19T11:31:49;27.00;99.90
6098;DHT22;3077;50.922;6.584;2022-08-19T11:34:18;26.80;99.90
6098;DHT22;3077;50.922;6.584;2022-08-19T11:36:46;26.60;99.90
6098;DHT22;3077;50.922;6.584;2022-08-19T11:39:15;26.50;99.90
6098;DHT22;3077;50.922;6.584;2022-08-19T11:41:41;26.60;99.90
6098;DHT22;3077;50.922;6.584;2022-08-19T11:44:08;26.80;99.90
6098;DHT22;3077;50.922;6.584;2022-08-19T11:46:34;27.10;99.90
6098;DHT22;3077;50.922;6.584;2022-08-19T11:49:01;27.30;99.90
6098;DHT22;3077;50.922;6.584;2022-08-19T11:51:28;27.50;99.90
6098;DHT22;3077;50.922;6.584;2022-08-19T11:53:55;27.40;99.90
6098;DHT22;3077;50.922;6.584;2022-08-19T11:56:21;27.60;99.90
6098;DHT22;3077;50.922;6.584;2022-08-19T11:58:47;28.10;99.90
6098;DHT22;3077;50.922;6.584;2022-08-19T12:01:16;28.50;99.50
6098;DHT22;3077;50.922;6.584;2022-08-19T12:03:47;29.00;97.10
6098;DHT22;3077;50.922;6.584;2022-08-19T12:06:16;29.50;93.30
6098;DHT22;3077;50.922;6.584;2022-08-19T12:08:43;30.10;91.10
6098;DHT22;3077;50.922;6.584;2022-08-19T12:11:10;30.60;82.80
6098;DHT22;3077;50.922;6.584;2022-08-19T12:13:37;30.90;76.90
6098;DHT22;3077;50.922;6.584;2022-08-19T12:16:12;31.30;66.80
6098;DHT22;3077;50.922;6.584;2022-08-19T12:18:39;31.30;60.20
6098;DHT22;3077;50.922;6.584;2022-08-19T12:21:08;31.20;59.10
6098;DHT22;3077;50.922;6.584;2022-08-19T12:23:35;30.80;55.60
6098;DHT22;3077;50.922;6.584;2022-08-19T12:26:02;30.50;57.10
6098;DHT22;3077;50.922;6.584;2022-08-19T12:28:28;30.30;57.80
6098;DHT22;3077;50.922;6.584;2022-08-19T12:30:56;30.80;56.20
6098;DHT22;3077;50.922;6.584;2022-08-19T12:33:22;31.30;53.70
6098;DHT22;3077;50.922;6.584;2022-08-19T12:35:51;31.60;48.30
6098;DHT22;3077;50.922;6.584;2022-08-19T12:38:16;31.30;47.30
6098;DHT22;3077;50.922;6.584;2022-08-19T12:40:46;31.30;47.10
6098;DHT22;3077;50.922;6.584;2022-08-19T12:43:13;31.40;46.00
6098;DHT22;3077;50.922;6.584;2022-08-19T12:45:42;31.80;45.00
6098;DHT22;3077;50.922;6.584;2022-08-19T12:48:09;31.90;43.80
6098;DHT22;3077;50.922;6.584;2022-08-19T12:50:34;31.50;44.70
6098;DHT22;3077;50.922;6.584;2022-08-19T12:53:00;31.60;43.60
6098;DHT22;3077;50.922;6.584;2022-08-19T12:55:26;31.60;42.00
6098;DHT22;3077;50.922;6.584;2022-08-19T12:57:53;31.80;42.30
6098;DHT22;3077;50.922;6.584;2022-08-19T13:00:20;32.30;42.40
6098;DHT22;3077;50.922;6.584;2022-08-19T13:02:48;32.70;42.50
6098;DHT22;3077;50.922;6.584;2022-08-19T13:05:22;32.50;42.80
6098;DHT22;3077;50.922;6.584;2022-08-19T13:07:49;32.80;41.20
6098;DHT22;3077;50.922;6.584;2022-08-19T13:10:18;32.50;39.50
6098;DHT22;3077;50.922;6.584;2022-08-19T13:12:46;31.80;39.80
6098;DHT22;3077;50.922;6.584;2022-08-19T13:15:13;32.10;40.40
6098;DHT22;3077;50.922;6.584;2022-08-19T13:17:39;32.50;38.40
6098;DHT22;3077;50.922;6.584;2022-08-19T13:20:06;32.50;38.50
6098;DHT22;3077;50.922;6.584;2022-08-19T13:22:33;32.40;39.90
6098;DHT22;3077;50.922;6.584;2022-08-19T13:25:02;33.10;37.80
6098;DHT22;3077;50.922;6.584;2022-08-19T13:27:29;33.00;36.20
6098;DHT22;3077;50.922;6.584;2022-08-19T13:29:54;33.40;36.20
6098;DHT22;3077;50.922;6.584;2022-08-19T13:32:39;33.20;35.40
6098;DHT22;3077;50.922;6.584;2022-08-19T13:35:23;32.80;36.70
6098;DHT22;3077;50.922;6.584;2022-08-19T13:37:48;32.80;37.10
6098;DHT22;3077;50.922;6.584;2022-08-19T13:40:23;32.60;35.20
6098;DHT22;3077;50.922;6.584;2022-08-19T13:42:52;32.40;35.20
6098;DHT22;3077;50.922;6.584;2022-08-19T13:45:23;32.20;36.60
6098;DHT22;3077;50.922;6.584;2022-08-19T13:47:51;32.00;36.30
6098;DHT22;3077;50.922;6.584;2022-08-19T13:50:21;31.70;36.40
6098;DHT22;3077;50.922;6.584;2022-08-19T13:52:47;31.00;37.40
6098;DHT22;3077;50.922;6.584;2022-08-19T13:55:14;30.70;38.60
6098;DHT22;3077;50.922;6.584;2022-08-19T13:57:41;31.10;37.90
6098;DHT22;3077;50.922;6.584;2022-08-19T14:00:15;31.60;32.00
6098;DHT22;3077;50.922;6.584;2022-08-19T14:02:43;32.10;31.80
6098;DHT22;3077;50.922;6.584;2022-08-19T14:05:11;32.30;30.90
6098;DHT22;3077;50.922;6.584;2022-08-19T14:07:37;32.80;30.10
6098;DHT22;3077;50.922;6.584;2022-08-19T14:10:04;33.30;29.40
6098;DHT22;3077;50.922;6.584;2022-08-19T14:12:30;34.20;27.50
6098;DHT22;3077;50.922;6.584;2022-08-19T14:14:57;34.30;26.00
6098;DHT22;3077;50.922;6.584;2022-08-19T14:17:23;34.50;25.50
6098;DHT22;3077;50.922;6.584;2022-08-19T14:19:55;34.90;24.30
6098;DHT22;3077;50.922;6.584;2022-08-19T14:22:21;34.80;24.40
6098;DHT22;3077;50.922;6.584;2022-08-19T14:24:46;34.50;24.50
6098;DHT22;3077;50.922;6.584;2022-08-19T14:27:13;34.60;25.20
6098;DHT22;3077;50.922;6.584;2022-08-19T14:29:38;34.60;24.70
6098;DHT22;3077;50.922;6.584;2022-08-19T14:32:04;35.00;23.70
6098;DHT22;3077;50.922;6.584;2022-08-19T14:34:30;34.30;23.70
6098;DHT22;3077;50.922;6.584;2022-08-19T14:36:57;34.00;25.50
6098;DHT22;3077;50.922;6.584;2022-08-19T14:39:23;33.40;25.70
6098;DHT22;3077;50.922;6.584;2022-08-19T14:41:48;32.50;26.80
6098;DHT22;3077;50.922;6.584;2022-08-19T14:44:14;32.50;28.60
6098;DHT22;3077;50.922;6.584;2022-08-19T14:46:40;32.40;28.80
6098;DHT22;3077;50.922;6.584;2022-08-19T14:49:06;31.80;29.80
6098;DHT22;3077;50.922;6.584;2022-08-19T14:51:32;31.00;31.60
6098;DHT22;3077;50.922;6.584;2022-08-19T14:53:57;30.20;33.70
6098;DHT22;3077;50.922;6.584;2022-08-19T14:56:26;29.80;35.70
6098;DHT22;3077;50.922;6.584;2022-08-19T14:58:52;29.40;37.50
6098;DHT22;3077;50.922;6.584;2022-08-19T15:01:19;29.10;39.10
6098;DHT22;3077;50.922;6.584;2022-08-19T15:03:46;29.20;39.60
6098;DHT22;3077;50.922;6.584;2022-08-19T15:06:12;29.60;38.80
6098;DHT22;3077;50.922;6.584;2022-08-19T15:08:39;29.20;39.30
6098;DHT22;3077;50.922;6.584;2022-08-19T15:11:10;29.00;40.90
6098;DHT22;3077;50.922;6.584;2022-08-19T15:13:37;28.90;42.40
6098;DHT22;3077;50.922;6.584;2022-08-19T15:16:03;28.60;43.40
6098;DHT22;3077;50.922;6.584;2022-08-19T15:18:28;28.40;46.10
6098;DHT22;3077;50.922;6.584;2022-08-19T15:20:54;28.40;47.20
6098;DHT22;3077;50.922;6.584;2022-08-19T15:23:20;29.10;46.60
6098;DHT22;3077;50.922;6.584;2022-08-19T15:25:46;29.30;45.60
6098;DHT22;3077;50.922;6.584;2022-08-19T15:28:13;29.30;45.90
6098;DHT22;3077;50.922;6.584;2022-08-19T15:30:41;29.30;46.40
6098;DHT22;3077;50.922;6.584;2022-08-19T15:33:10;29.00;46.70
6098;DHT22;3077;50.922;6.584;2022-08-19T15:35:40;29.00;47.50
6098;DHT22;3077;50.922;6.584;2022-08-19T15:38:07;28.90;47.50
6098;DHT22;3077;50.922;6.584;2022-08-19T15:40:33;28.70;48.30
6098;DHT22;3077;50.922;6.584;2022-08-19T15:42:58;28.50;49.50
6098;DHT22;3077;50.922;6.584;2022-08-19T15:45:25;28.20;51.20
6098;DHT22;3077;50.922;6.584;2022-08-19T15:47:58;28.00;52.50
6098;DHT22;3077;50.922;6.584;2022-08-19T15:50:24;27.90;53.90
6098;DHT22;3077;50.922;6.584;2022-08-19T15:55:19;27.90;55.20
6098;DHT22;3077;50.922;6.584;2022-08-19T15:57:45;28.00;56.20
6098;DHT22;3077;50.922;6.584;2022-08-19T16:00:29;28.00;56.80
6098;DHT22;3077;50.922;6.584;2022-08-19T16:03:14;28.00;57.90
6098;DHT22;3077;50.922;6.584;2022-08-19T16:05:59;27.90;59.00
6098;DHT22;3077;50.922;6.584;2022-08-19T16:08:44;27.80;60.40
6098;DHT22;3077;50.922;6.584;2022-08-19T16:11:11;27.60;63.60
6098;DHT22;3077;50.922;6.584;2022-08-19T16:13:37;27.40;66.80
6098;DHT22;3077;50.922;6.584;2022-08-19T16:16:04;27.20;70.30
6098;DHT22;3077;50.922;6.584;2022-08-19T16:18:30;27.10;75.20
6098;DHT22;3077;50.922;6.584;2022-08-19T16:20:56;27.00;82.10
6098;DHT22;3077;50.922;6.584;2022-08-19T16:23:22;26.60;87.80
6098;DHT22;3077;50.922;6.584;2022-08-19T16:25:48;26.40;92.50